Time;durP1;ratioP1;P1;durP2;ratioP2;P2;SDS_P1;SDS_P2;PMS_P1;PMS_P2;Temp;Humidity;BMP_temperature;BMP_pressure;BME280_temperature;BME280_humidity;BME280_pressure;Samples;Min_cycle;Max_cycle;Signal;HPM_P1;HPM_P2
2021/06/15 00:01:10;;;;;;;;;;;18.40;99.90;;;;;;5115874;28;20004;-75
2021/06/15 00:03:36;;;;;;;;;;;18.30;99.90;;;;;;5115766;28;19904;-75
2021/06/15 00:06:01;;;;;;;;;;;18.30;99.90;;;;;;5114943;28;19904;-75
2021/06/15 00:08:27;;;;;;;;;;;18.30;99.90;;;;;;5115876;28;20287;-75
2021/06/15 00:10:52;;;;;;;;;;;18.30;99.90;;;;;;5115808;28;20244;-75
2021/06/15 00:13:18;;;;;;;;;;;18.30;99.90;;;;;;5113816;28;19903;-76
2021/06/15 00:15:47;;;;;;;;;;;18.20;99.90;;;;;;5115428;28;19912;-75
2021/06/15 00:18:14;;;;;;;;;;;18.20;99.90;;;;;;5115386;28;19907;-76
2021/06/15 00:20:39;;;;;;;;;;;18.10;99.90;;;;;;5114685;28;19910;-75
2021/06/15 00:23:05;;;;;;;;;;;18.10;99.90;;;;;;5115274;28;19904;-76
2021/06/15 00:25:30;;;;;;;;;;;18.10;99.90;;;;;;5115457;28;19911;-75
2021/06/15 00:27:56;;;;;;;;;;;18.00;99.90;;;;;;5114747;28;19990;-76
2021/06/15 00:30:24;;;;;;;;;;;17.90;99.90;;;;;;5115173;28;19903;-74
2021/06/15 00:32:50;;;;;;;;;;;17.90;99.90;;;;;;5115377;28;19925;-75
2021/06/15 00:35:17;;;;;;;;;;;17.90;99.90;;;;;;5114513;28;19923;-75
2021/06/15 00:37:42;;;;;;;;;;;17.90;99.90;;;;;;5115598;28;19958;-75
2021/06/15 00:40:08;;;;;;;;;;;17.80;99.90;;;;;;5115079;28;19911;-74
2021/06/15 00:42:34;;;;;;;;;;;17.80;99.90;;;;;;5114225;28;19904;-76
2021/06/15 00:44:59;;;;;;;;;;;17.80;99.90;;;;;;5114964;28;19907;-74
2021/06/15 00:47:25;;;;;;;;;;;17.80;99.90;;;;;;5114843;28;20304;-76
2021/06/15 00:49:52;;;;;;;;;;;17.80;99.90;;;;;;5114136;28;19914;-75
2021/06/15 00:52:17;;;;;;;;;;;17.80;99.90;;;;;;5115063;28;19904;-75
2021/06/15 00:54:43;;;;;;;;;;;17.70;99.90;;;;;;5114048;28;19910;-75
2021/06/15 00:57:14;;;;;;;;;;;17.70;99.90;;;;;;5114470;28;19908;-74
2021/06/15 00:59:39;;;;;;;;;;;17.70;99.90;;;;;;5114839;28;19907;-77
2021/06/15 01:02:05;;;;;;;;;;;17.60;99.90;;;;;;5114214;28;19956;-74
2021/06/15 01:04:30;;;;;;;;;;;17.60;99.90;;;;;;5114665;28;19925;-75
2021/06/15 01:06:55;;;;;;;;;;;17.60;99.90;;;;;;5114644;28;19904;-75
2021/06/15 01:09:26;;;;;;;;;;;17.60;99.90;;;;;;5114030;28;20306;-76
2021/06/15 01:12:03;;;;;;;;;;;17.60;99.90;;;;;;5114670;28;19931;-74
2021/06/15 01:14:38;;;;;;;;;;;17.60;99.90;;;;;;5114406;28;20260;-75
2021/06/15 01:17:07;;;;;;;;;;;17.60;99.90;;;;;;5113817;28;19911;-75
2021/06/15 01:19:42;;;;;;;;;;;17.60;99.90;;;;;;5114130;28;19933;-75
2021/06/15 01:22:28;;;;;;;;;;;17.60;99.90;;;;;;5114515;28;19945;-75
2021/06/15 01:25:00;;;;;;;;;;;17.60;99.90;;;;;;5113208;28;20415;-75
2021/06/15 01:27:37;;;;;;;;;;;17.70;99.90;;;;;;5114293;28;20105;-75
2021/06/15 01:30:05;;;;;;;;;;;17.80;99.90;;;;;;5113527;28;20691;-76
2021/06/15 01:32:34;;;;;;;;;;;17.90;99.90;;;;;;5114126;28;19916;-75
2021/06/15 01:34:59;;;;;;;;;;;17.90;99.90;;;;;;5114207;28;19908;-75
2021/06/15 01:37:30;;;;;;;;;;;18.00;99.90;;;;;;5113578;28;20287;-75
2021/06/15 01:39:57;;;;;;;;;;;18.00;99.90;;;;;;5113795;28;19904;-76
2021/06/15 01:42:27;;;;;;;;;;;18.10;99.90;;;;;;5113752;28;20318;-75
2021/06/15 01:44:57;;;;;;;;;;;18.10;99.90;;;;;;5112872;28;19911;-76
2021/06/15 01:47:25;;;;;;;;;;;18.20;99.90;;;;;;5113789;28;19903;-76
2021/06/15 01:49:53;;;;;;;;;;;18.20;99.90;;;;;;5113910;28;20274;-76
2021/06/15 01:52:21;;;;;;;;;;;18.10;99.90;;;;;;5112977;28;20422;-76
2021/06/15 01:54:50;;;;;;;;;;;18.10;99.90;;;;;;5113975;28;19941;-76
2021/06/15 01:57:20;;;;;;;;;;;18.10;99.90;;;;;;5113926;28;19935;-76
2021/06/15 01:59:46;;;;;;;;;;;18.20;99.90;;;;;;5112907;28;19904;-76
2021/06/15 02:02:12;;;;;;;;;;;18.10;99.90;;;;;;5113677;28;19966;-76
2021/06/15 02:04:41;;;;;;;;;;;18.10;99.90;;;;;;5113877;28;19986;-76
2021/06/15 02:07:07;;;;;;;;;;;18.20;99.90;;;;;;5113178;28;19903;-75
2021/06/15 02:09:34;;;;;;;;;;;18.00;99.90;;;;;;5113878;28;20351;-75
2021/06/15 02:12:00;;;;;;;;;;;18.00;99.90;;;;;;5112859;28;20048;-76
2021/06/15 02:14:27;;;;;;;;;;;18.00;99.90;;;;;;5113990;28;19939;-75
2021/06/15 02:16:53;;;;;;;;;;;18.00;99.90;;;;;;5113333;28;20327;-75
2021/06/15 02:19:20;;;;;;;;;;;18.00;99.90;;;;;;5113239;28;20323;-74
2021/06/15 02:21:50;;;;;;;;;;;18.00;99.90;;;;;;5113388;28;19910;-74
2021/06/15 02:24:17;;;;;;;;;;;18.00;99.90;;;;;;5113763;28;19903;-75
2021/06/15 02:26:43;;;;;;;;;;;18.00;99.90;;;;;;5112828;28;19903;-75
2021/06/15 02:29:10;;;;;;;;;;;18.00;99.90;;;;;;5113590;28;20408;-74
2021/06/15 02:31:38;;;;;;;;;;;18.00;99.90;;;;;;5113266;28;20355;-74
2021/06/15 02:34:06;;;;;;;;;;;18.00;99.90;;;;;;5112621;28;19910;-74
2021/06/15 02:36:33;;;;;;;;;;;18.00;99.90;;;;;;5113993;28;19912;-75
2021/06/15 02:39:00;;;;;;;;;;;18.00;99.90;;;;;;5117371;28;19903;-75
2021/06/15 02:41:29;;;;;;;;;;;18.00;99.90;;;;;;5116886;28;19907;-75
2021/06/15 02:43:59;;;;;;;;;;;18.00;99.90;;;;;;5117505;28;19938;-75
2021/06/15 02:46:26;;;;;;;;;;;18.00;99.90;;;;;;5117541;28;19942;-75
2021/06/15 02:48:52;;;;;;;;;;;18.00;99.90;;;;;;5116553;28;19903;-75
2021/06/15 02:51:18;;;;;;;;;;;18.00;99.90;;;;;;5117352;28;19903;-75
2021/06/15 02:53:47;;;;;;;;;;;18.20;99.90;;;;;;5117369;28;20322;-75
2021/06/15 02:56:15;;;;;;;;;;;18.00;99.90;;;;;;5116745;28;20010;-75
2021/06/15 02:58:41;;;;;;;;;;;18.10;99.90;;;;;;5116745;28;19928;-75
2021/06/15 03:01:06;;;;;;;;;;;18.00;99.90;;;;;;5117076;28;19956;-76
2021/06/15 03:03:32;;;;;;;;;;;18.10;99.90;;;;;;5116257;28;19994;-75
2021/06/15 03:05:57;;;;;;;;;;;18.10;99.90;;;;;;5117062;28;19908;-76
2021/06/15 03:08:23;;;;;;;;;;;17.90;99.90;;;;;;5116251;28;20006;-76
2021/06/15 03:10:48;;;;;;;;;;;18.10;99.90;;;;;;5116925;28;19922;-75
2021/06/15 03:13:14;;;;;;;;;;;18.00;99.90;;;;;;5116475;28;19903;-75
2021/06/15 03:15:44;;;;;;;;;;;18.00;99.90;;;;;;5115793;28;19927;-75
2021/06/15 03:18:13;;;;;;;;;;;18.00;99.90;;;;;;5116586;28;20287;-75
2021/06/15 03:20:39;;;;;;;;;;;18.00;99.90;;;;;;5116327;28;20392;-76
2021/06/15 03:23:08;;;;;;;;;;;18.00;99.90;;;;;;5115549;28;20284;-74
2021/06/15 03:25:34;;;;;;;;;;;18.00;99.90;;;;;;5116307;28;20392;-76
2021/06/15 03:28:16;;;;;;;;;;;18.00;99.90;;;;;;5116336;28;19904;-75
2021/06/15 03:30:43;;;;;;;;;;;18.00;99.90;;;;;;5115292;28;19904;-75
2021/06/15 03:33:09;;;;;;;;;;;17.90;99.90;;;;;;5116292;28;19910;-76
2021/06/15 03:35:37;;;;;;;;;;;18.00;99.90;;;;;;5116224;28;19911;-75
2021/06/15 03:38:04;;;;;;;;;;;18.00;99.90;;;;;;5115292;28;19903;-76
2021/06/15 03:40:32;;;;;;;;;;;18.00;99.90;;;;;;5116323;28;19904;-75
2021/06/15 03:42:58;;;;;;;;;;;18.00;99.90;;;;;;5116126;28;19904;-75
2021/06/15 03:45:29;;;;;;;;;;;17.90;99.90;;;;;;5115370;28;20256;-75
2021/06/15 03:47:56;;;;;;;;;;;18.00;99.90;;;;;;5115702;28;20224;-75
2021/06/15 03:50:22;;;;;;;;;;;18.00;99.90;;;;;;5115153;28;19903;-75
2021/06/15 03:52:51;;;;;;;;;;;18.00;99.90;;;;;;5115367;28;20347;-75
2021/06/15 03:55:18;;;;;;;;;;;18.10;99.90;;;;;;5116026;28;19908;-75
2021/06/15 03:57:43;;;;;;;;;;;18.00;99.90;;;;;;5114976;28;19920;-74
2021/06/15 04:00:11;;;;;;;;;;;18.10;99.90;;;;;;5116465;28;19957;-76
2021/06/15 04:02:38;;;;;;;;;;;18.10;99.90;;;;;;5115870;28;20347;-75
2021/06/15 04:05:04;;;;;;;;;;;18.10;99.90;;;;;;5115094;28;19931;-75
2021/06/15 04:07:30;;;;;;;;;;;18.00;99.90;;;;;;5115834;28;19957;-75
2021/06/15 04:09:56;;;;;;;;;;;18.00;99.90;;;;;;5115366;28;19929;-75
2021/06/15 04:12:24;;;;;;;;;;;18.00;99.90;;;;;;5114728;28;19903;-75
2021/06/15 04:14:51;;;;;;;;;;;18.00;99.90;;;;;;5115759;28;19969;-75
2021/06/15 04:17:18;;;;;;;;;;;18.00;99.90;;;;;;5115408;28;19939;-75
2021/06/15 04:19:46;;;;;;;;;;;17.90;99.90;;;;;;5114952;28;20310;-74
2021/06/15 04:22:13;;;;;;;;;;;17.90;99.90;;;;;;5115657;28;19915;-75
2021/06/15 04:24:40;;;;;;;;;;;17.90;99.90;;;;;;5115147;28;19990;-75
2021/06/15 04:27:06;;;;;;;;;;;17.90;99.90;;;;;;5114655;28;19915;-75
2021/06/15 04:29:31;;;;;;;;;;;17.80;99.90;;;;;;5115055;28;19903;-75
2021/06/15 04:31:59;;;;;;;;;;;17.80;99.90;;;;;;5115565;28;19946;-75
2021/06/15 04:34:25;;;;;;;;;;;17.90;99.90;;;;;;5114745;28;20362;-75
2021/06/15 04:36:54;;;;;;;;;;;17.90;99.90;;;;;;5114969;28;20015;-75
2021/06/15 04:39:20;;;;;;;;;;;17.90;99.90;;;;;;5115207;28;20282;-75
2021/06/15 04:41:58;;;;;;;;;;;17.90;99.90;;;;;;5114405;28;19910;-75
2021/06/15 04:44:29;;;;;;;;;;;17.90;99.90;;;;;;5115213;28;19907;-75
2021/06/15 04:47:04;;;;;;;;;;;18.00;99.90;;;;;;5114324;28;19911;-75
2021/06/15 04:49:56;;;;;;;;;;;18.00;99.90;;;;;;5114643;28;19910;-76
2021/06/15 04:52:25;;;;;;;;;;;18.10;99.90;;;;;;5111554;28;19903;-75
2021/06/15 04:54:50;;;;;;;;;;;18.10;99.90;;;;;;5113871;28;19939;-74
2021/06/15 04:57:20;;;;;;;;;;;18.10;99.90;;;;;;5114443;28;19931;-76
2021/06/15 04:59:47;;;;;;;;;;;18.20;99.90;;;;;;5114012;28;19911;-75
2021/06/15 05:02:13;;;;;;;;;;;18.20;99.90;;;;;;5113668;28;19910;-76
2021/06/15 05:04:38;;;;;;;;;;;18.20;99.90;;;;;;5114736;28;19983;-76
2021/06/15 05:07:04;;;;;;;;;;;18.20;99.90;;;;;;5114818;28;19958;-74
2021/06/15 05:09:32;;;;;;;;;;;18.20;99.90;;;;;;5113784;28;20442;-75
2021/06/15 05:11:58;;;;;;;;;;;18.20;99.90;;;;;;5114854;28;19987;-74
2021/06/15 05:14:25;;;;;;;;;;;18.20;99.90;;;;;;5114536;28;20380;-75
2021/06/15 05:16:51;;;;;;;;;;;18.30;99.90;;;;;;5113376;28;19944;-75
2021/06/15 05:19:16;;;;;;;;;;;18.30;99.90;;;;;;5114275;28;19904;-76
2021/06/15 05:21:51;;;;;;;;;;;18.30;99.90;;;;;;5114321;28;19904;-76
2021/06/15 05:24:39;;;;;;;;;;;18.40;99.90;;;;;;5114204;28;20334;-75
2021/06/15 05:27:05;;;;;;;;;;;18.40;99.90;;;;;;5114154;28;19904;-74
2021/06/15 05:29:30;;;;;;;;;;;18.40;99.90;;;;;;5113652;28;20362;-76
2021/06/15 05:31:56;;;;;;;;;;;18.40;99.90;;;;;;5114046;28;19931;-75
2021/06/15 05:34:21;;;;;;;;;;;18.40;99.90;;;;;;5113908;28;19904;-75
2021/06/15 05:36:47;;;;;;;;;;;18.40;99.90;;;;;;5113293;28;19918;-75
2021/06/15 05:39:13;;;;;;;;;;;18.40;99.90;;;;;;5113915;28;19904;-74
2021/06/15 05:41:38;;;;;;;;;;;18.40;99.90;;;;;;5113891;28;19904;-77
2021/06/15 05:44:04;;;;;;;;;;;18.40;99.90;;;;;;5113327;28;19911;-76
2021/06/15 05:46:29;;;;;;;;;;;18.40;99.90;;;;;;5114052;28;20407;-76
2021/06/15 05:48:54;;;;;;;;;;;18.40;99.90;;;;;;5114023;28;19904;-75
2021/06/15 05:51:20;;;;;;;;;;;18.50;99.90;;;;;;5112889;28;19907;-75
2021/06/15 05:53:45;;;;;;;;;;;18.60;99.90;;;;;;5113711;28;19904;-76
2021/06/15 05:56:11;;;;;;;;;;;18.60;99.90;;;;;;5113765;28;19977;-76
2021/06/15 05:58:36;;;;;;;;;;;18.70;99.90;;;;;;5112678;28;19915;-77
2021/06/15 06:01:02;;;;;;;;;;;18.80;99.90;;;;;;5113784;28;19904;-75
2021/06/15 06:03:36;;;;;;;;;;;19.00;99.90;;;;;;5113795;28;20463;-75
2021/06/15 06:08:45;;;;;;;;;;;19.00;99.90;;;;;;5114077;28;20267;-75
2021/06/15 06:11:11;;;;;;;;;;;19.00;99.90;;;;;;5112520;28;19904;-75
2021/06/15 06:13:37;;;;;;;;;;;19.00;99.90;;;;;;5113306;28;19903;-76
2021/06/15 06:16:08;;;;;;;;;;;19.00;99.90;;;;;;5113391;28;19912;-77
2021/06/15 06:18:33;;;;;;;;;;;19.00;99.90;;;;;;5112935;28;20041;-76
2021/06/15 06:20:59;;;;;;;;;;;18.80;99.90;;;;;;5113376;28;19949;-76
2021/06/15 06:23:26;;;;;;;;;;;18.80;99.90;;;;;;5113537;28;20389;-76
2021/06/15 06:25:51;;;;;;;;;;;18.80;99.90;;;;;;5112949;28;19904;-75
2021/06/15 06:28:17;;;;;;;;;;;18.80;99.90;;;;;;5113915;28;19994;-76
2021/06/15 06:30:42;;;;;;;;;;;18.80;99.90;;;;;;5113749;28;19903;-76
2021/06/15 06:33:08;;;;;;;;;;;18.90;99.90;;;;;;5112556;28;19904;-76
2021/06/15 06:35:33;;;;;;;;;;;18.90;99.90;;;;;;5113350;28;19957;-76
2021/06/15 06:37:59;;;;;;;;;;;18.80;99.90;;;;;;5113375;28;20236;-76
2021/06/15 06:40:25;;;;;;;;;;;18.60;99.90;;;;;;5112667;28;19908;-75
2021/06/15 06:42:51;;;;;;;;;;;18.70;99.90;;;;;;5113216;28;19908;-76
2021/06/15 06:45:16;;;;;;;;;;;18.60;99.90;;;;;;5113175;28;19904;-76
2021/06/15 06:47:42;;;;;;;;;;;18.50;99.90;;;;;;5112560;28;19911;-76
2021/06/15 06:50:08;;;;;;;;;;;18.50;99.90;;;;;;5113459;28;19991;-76
2021/06/15 06:52:34;;;;;;;;;;;18.60;99.90;;;;;;5113229;28;20037;-76
2021/06/15 06:54:59;;;;;;;;;;;18.80;99.90;;;;;;5112306;28;19994;-76
2021/06/15 06:57:25;;;;;;;;;;;18.90;99.90;;;;;;5094589;28;19915;-75
2021/06/15 06:59:50;;;;;;;;;;;19.00;99.90;;;;;;5113388;28;19914;-76
2021/06/15 07:02:16;;;;;;;;;;;19.10;99.90;;;;;;5112174;28;19904;-74
2021/06/15 07:04:41;;;;;;;;;;;19.20;99.90;;;;;;5113464;28;20042;-76
2021/06/15 07:07:08;;;;;;;;;;;19.30;99.90;;;;;;5112987;28;20324;-76
2021/06/15 07:09:33;;;;;;;;;;;19.60;99.90;;;;;;5112470;28;19904;-75
2021/06/15 07:11:59;;;;;;;;;;;19.80;99.90;;;;;;5113173;28;19907;-75
2021/06/15 07:14:24;;;;;;;;;;;19.90;99.80;;;;;;5112591;28;19904;-75
2021/06/15 07:16:50;;;;;;;;;;;19.70;99.10;;;;;;5113073;28;19915;-76
2021/06/15 07:19:15;;;;;;;;;;;19.80;99.50;;;;;;5113175;28;19907;-76
2021/06/15 07:21:41;;;;;;;;;;;19.90;99.70;;;;;;5112357;28;19911;-76
2021/06/15 07:24:06;;;;;;;;;;;20.10;99.30;;;;;;5116272;28;19903;-75
2021/06/15 07:26:32;;;;;;;;;;;20.20;98.90;;;;;;5116434;28;20247;-75
2021/06/15 07:28:59;;;;;;;;;;;20.40;98.80;;;;;;5116189;28;20004;-74
2021/06/15 07:31:25;;;;;;;;;;;20.50;97.80;;;;;;5116853;28;19904;-76
2021/06/15 07:33:50;;;;;;;;;;;20.50;96.90;;;;;;5116859;28;19907;-75
2021/06/15 07:36:16;;;;;;;;;;;20.40;97.20;;;;;;5115601;28;20002;-75
2021/06/15 07:38:41;;;;;;;;;;;20.40;97.50;;;;;;5116552;28;19969;-75
2021/06/15 07:41:07;;;;;;;;;;;20.30;96.90;;;;;;5116469;28;19946;-76
2021/06/15 07:43:32;;;;;;;;;;;20.30;96.50;;;;;;5115494;28;19908;-74
2021/06/15 07:45:58;;;;;;;;;;;20.20;95.10;;;;;;5116243;28;19998;-74
2021/06/15 07:48:23;;;;;;;;;;;20.00;95.00;;;;;;5116372;28;19907;-75
2021/06/15 07:50:51;;;;;;;;;;;19.80;94.70;;;;;;5115389;28;19908;-76
2021/06/15 07:53:18;;;;;;;;;;;19.70;94.50;;;;;;5116227;28;19949;-76
2021/06/15 07:55:43;;;;;;;;;;;19.80;94.20;;;;;;5116308;28;19990;-76
2021/06/15 07:58:09;;;;;;;;;;;19.90;93.30;;;;;;5115134;28;19969;-75
2021/06/15 08:00:34;;;;;;;;;;;20.00;93.50;;;;;;5116125;28;19907;-74
2021/06/15 08:03:00;;;;;;;;;;;21.00;93.80;;;;;;5116017;28;19943;-76
2021/06/15 08:05:25;;;;;;;;;;;20.30;93.00;;;;;;5114168;28;19911;-74
2021/06/15 08:07:52;;;;;;;;;;;20.40;93.40;;;;;;5116179;28;19927;-75
2021/06/15 08:10:19;;;;;;;;;;;20.60;93.60;;;;;;5115828;28;19910;-75
2021/06/15 08:12:45;;;;;;;;;;;20.70;92.20;;;;;;5115339;28;19903;-74
2021/06/15 08:15:11;;;;;;;;;;;20.90;90.80;;;;;;5115919;28;19907;-75
2021/06/15 08:17:36;;;;;;;;;;;20.90;90.70;;;;;;5115875;28;20359;-74
2021/06/15 08:20:03;;;;;;;;;;;21.10;91.00;;;;;;5114949;28;19957;-74
2021/06/15 08:22:28;;;;;;;;;;;21.20;90.10;;;;;;5116149;28;19904;-75
2021/06/15 08:24:54;;;;;;;;;;;21.00;88.40;;;;;;5114636;28;19903;-76
2021/06/15 08:27:19;;;;;;;;;;;21.00;89.40;;;;;;5115550;28;19910;-74
2021/06/15 08:29:45;;;;;;;;;;;21.20;90.10;;;;;;5115783;28;19904;-74
2021/06/15 08:32:10;;;;;;;;;;;21.20;88.50;;;;;;5114647;28;20283;-74
2021/06/15 08:34:37;;;;;;;;;;;21.10;88.70;;;;;;5114373;28;19904;-74
2021/06/15 08:37:03;;;;;;;;;;;21.10;88.50;;;;;;5115219;28;20384;-74
2021/06/15 08:39:28;;;;;;;;;;;21.10;88.00;;;;;;5114575;28;19904;-74
2021/06/15 08:41:54;;;;;;;;;;;21.00;88.70;;;;;;5115023;28;19926;-75
2021/06/15 08:44:19;;;;;;;;;;;21.10;88.80;;;;;;5115064;28;20370;-76
2021/06/15 08:46:45;;;;;;;;;;;21.20;89.00;;;;;;5114332;28;19904;-76
2021/06/15 08:49:10;;;;;;;;;;;21.30;88.40;;;;;;5115086;28;19947;-76
2021/06/15 08:51:36;;;;;;;;;;;21.20;87.80;;;;;;5115111;28;20394;-75
2021/06/15 08:54:05;;;;;;;;;;;21.40;88.20;;;;;;5114189;28;19910;-75
2021/06/15 08:56:32;;;;;;;;;;;21.30;86.50;;;;;;5114735;28;19916;-76
2021/06/15 08:59:03;;;;;;;;;;;21.20;86.80;;;;;;5114616;28;20018;-75
2021/06/15 09:01:29;;;;;;;;;;;21.10;86.30;;;;;;5113979;28;19903;-74
2021/06/15 09:03:54;;;;;;;;;;;21.10;87.00;;;;;;5114767;28;19904;-75
2021/06/15 09:06:20;;;;;;;;;;;21.10;85.90;;;;;;5114779;28;20194;-75
2021/06/15 09:08:49;;;;;;;;;;;21.00;86.00;;;;;;5113939;28;20013;-75
2021/06/15 09:11:15;;;;;;;;;;;21.10;86.60;;;;;;5114441;28;19904;-73
2021/06/15 09:13:40;;;;;;;;;;;21.10;86.00;;;;;;5114551;28;19914;-74
2021/06/15 09:16:26;;;;;;;;;;;21.20;86.40;;;;;;5113539;28;19912;-75
2021/06/15 09:18:53;;;;;;;;;;;21.30;84.90;;;;;;5113829;28;20304;-74
2021/06/15 09:21:28;;;;;;;;;;;21.20;84.30;;;;;;5113695;28;20088;-76
2021/06/15 09:24:02;;;;;;;;;;;21.20;82.50;;;;;;5114404;28;19904;-76
2021/06/15 09:26:47;;;;;;;;;;;21.20;83.40;;;;;;5114456;28;20338;-75
2021/06/15 09:29:13;;;;;;;;;;;21.40;83.90;;;;;;5113254;28;19904;-74
2021/06/15 09:31:51;;;;;;;;;;;21.30;82.40;;;;;;5114319;28;19910;-76
2021/06/15 09:34:16;;;;;;;;;;;21.40;82.30;;;;;;5114169;28;19911;-74
2021/06/15 09:36:43;;;;;;;;;;;21.40;83.50;;;;;;5113140;28;19912;-75
2021/06/15 09:39:09;;;;;;;;;;;21.50;84.30;;;;;;5114148;28;20269;-76
2021/06/15 09:41:38;;;;;;;;;;;21.60;84.00;;;;;;5114263;28;19910;-76
2021/06/15 09:44:26;;;;;;;;;;;21.60;83.80;;;;;;5113732;28;19910;-75
2021/06/15 09:46:52;;;;;;;;;;;21.80;83.80;;;;;;5114327;28;20267;-74
2021/06/15 09:49:37;;;;;;;;;;;22.10;85.40;;;;;;5113563;28;19904;-74
2021/06/15 09:52:09;;;;;;;;;;;22.40;84.80;;;;;;5113725;28;20007;-74
2021/06/15 09:54:39;;;;;;;;;;;22.30;84.00;;;;;;5113870;28;19949;-75
2021/06/15 09:57:13;;;;;;;;;;;22.40;85.20;;;;;;5113049;28;19918;-75
2021/06/15 09:59:56;;;;;;;;;;;22.50;84.60;;;;;;5113486;28;19961;-75
2021/06/15 10:02:25;;;;;;;;;;;22.60;84.10;;;;;;5113561;28;19904;-75
2021/06/15 10:04:50;;;;;;;;;;;22.70;86.00;;;;;;5113001;28;19931;-75
2021/06/15 10:07:29;;;;;;;;;;;22.50;87.30;;;;;;5113551;28;20342;-75
2021/06/15 10:09:55;;;;;;;;;;;22.40;89.20;;;;;;5113434;28;19950;-76
2021/06/15 10:12:21;;;;;;;;;;;22.40;88.60;;;;;;5113013;28;19907;-76
2021/06/15 10:14:47;;;;;;;;;;;22.40;89.40;;;;;;5113409;28;19910;-76
2021/06/15 10:17:12;;;;;;;;;;;22.30;89.30;;;;;;5113573;28;20002;-75
2021/06/15 10:19:39;;;;;;;;;;;22.30;90.00;;;;;;5113231;28;19904;-76
2021/06/15 10:22:04;;;;;;;;;;;22.30;89.80;;;;;;5113394;28;19911;-75
2021/06/15 10:24:30;;;;;;;;;;;22.30;90.40;;;;;;5112676;28;19908;-76
2021/06/15 10:26:56;;;;;;;;;;;22.30;90.80;;;;;;5113491;28;20290;-76
2021/06/15 10:29:21;;;;;;;;;;;22.10;90.90;;;;;;5113260;28;19911;-76
2021/06/15 10:31:49;;;;;;;;;;;22.10;91.00;;;;;;5112726;28;20257;-76
2021/06/15 10:34:14;;;;;;;;;;;22.10;91.20;;;;;;5113387;28;19956;-76
2021/06/15 10:36:47;;;;;;;;;;;22.10;91.10;;;;;;5113182;28;19919;-74
2021/06/15 10:39:31;;;;;;;;;;;22.30;91.70;;;;;;5112514;28;19926;-75
2021/06/15 10:42:10;;;;;;;;;;;22.40;90.70;;;;;;5113399;28;19926;-75
2021/06/15 10:44:36;;;;;;;;;;;22.50;91.30;;;;;;5113446;28;19904;-75
2021/06/15 10:47:07;;;;;;;;;;;22.70;91.20;;;;;;5112804;28;19910;-75
2021/06/15 10:49:53;;;;;;;;;;;22.90;91.00;;;;;;5113443;28;20223;-74
2021/06/15 10:52:18;;;;;;;;;;;22.90;90.90;;;;;;5112984;28;19903;-75
2021/06/15 10:54:44;;;;;;;;;;;22.70;91.60;;;;;;5112368;28;19949;-74
2021/06/15 10:57:12;;;;;;;;;;;22.70;92.20;;;;;;5113323;28;19965;-74
2021/06/15 10:59:56;;;;;;;;;;;22.80;92.00;;;;;;5116212;28;20365;-74
2021/06/15 11:02:22;;;;;;;;;;;22.70;91.40;;;;;;5117122;28;19904;-75
2021/06/15 11:04:47;;;;;;;;;;;22.70;91.70;;;;;;5116948;28;19918;-74
2021/06/15 11:07:32;;;;;;;;;;;22.80;91.60;;;;;;5116240;28;19994;-75
2021/06/15 11:09:57;;;;;;;;;;;22.80;91.00;;;;;;5116850;28;19904;-74
2021/06/15 11:12:23;;;;;;;;;;;22.90;91.60;;;;;;5116993;28;19961;-74
2021/06/15 11:15:07;;;;;;;;;;;22.90;91.00;;;;;;5116030;28;19988;-74
2021/06/15 11:17:42;;;;;;;;;;;23.00;90.80;;;;;;5116927;28;19912;-75
2021/06/15 11:20:08;;;;;;;;;;;23.00;90.30;;;;;;5116727;28;19910;-75
2021/06/15 11:22:33;;;;;;;;;;;23.10;90.80;;;;;;5116039;28;19903;-75
2021/06/15 11:25:03;;;;;;;;;;;23.30;90.60;;;;;;5116805;28;19919;-76
2021/06/15 11:27:28;;;;;;;;;;;23.40;89.40;;;;;;5116613;28;20321;-75
2021/06/15 11:29:59;;;;;;;;;;;23.50;90.10;;;;;;5115731;28;19904;-73
2021/06/15 11:32:28;;;;;;;;;;;23.40;88.80;;;;;;5116563;28;19904;-74
2021/06/15 11:34:54;;;;;;;;;;;23.50;89.50;;;;;;5115782;28;19903;-74
2021/06/15 11:37:21;;;;;;;;;;;23.70;90.10;;;;;;5116344;28;20279;-75
2021/06/15 11:39:47;;;;;;;;;;;23.70;89.60;;;;;;5116280;28;19904;-76
2021/06/15 11:42:17;;;;;;;;;;;23.60;89.00;;;;;;5115420;28;19911;-75
2021/06/15 11:45:02;;;;;;;;;;;23.60;88.60;;;;;;5116289;28;20339;-75
2021/06/15 11:47:31;;;;;;;;;;;23.50;88.60;;;;;;5116276;28;19903;-75
2021/06/15 11:50:05;;;;;;;;;;;23.60;89.20;;;;;;5115358;28;19943;-76
2021/06/15 11:52:30;;;;;;;;;;;23.70;87.60;;;;;;5115982;28;19949;-75
2021/06/15 11:54:56;;;;;;;;;;;23.50;88.20;;;;;;5116008;28;20292;-75
2021/06/15 11:57:22;;;;;;;;;;;23.60;88.80;;;;;;5115085;28;19912;-75
2021/06/15 11:59:47;;;;;;;;;;;23.80;88.70;;;;;;5115809;28;19916;-74
2021/06/15 12:02:17;;;;;;;;;;;24.00;87.10;;;;;;5115929;28;19904;-75
2021/06/15 12:05:01;;;;;;;;;;;23.90;85.60;;;;;;5115401;28;19903;-75
2021/06/15 12:07:26;;;;;;;;;;;23.70;86.40;;;;;;5115823;28;19903;-75
2021/06/15 12:10:10;;;;;;;;;;;23.60;86.10;;;;;;5115024;28;19910;-75
2021/06/15 12:12:54;;;;;;;;;;;23.70;86.60;;;;;;5115995;28;19911;-74
2021/06/15 12:15:26;;;;;;;;;;;23.80;86.90;;;;;;5115426;28;19904;-74
2021/06/15 12:17:51;;;;;;;;;;;23.70;86.00;;;;;;5115115;28;19908;-75
2021/06/15 12:20:21;;;;;;;;;;;23.80;86.20;;;;;;5114660;28;20216;-75
2021/06/15 12:22:46;;;;;;;;;;;23.90;85.20;;;;;;5115145;28;19934;-75
2021/06/15 12:25:12;;;;;;;;;;;23.80;85.30;;;;;;5114360;28;20359;-74
2021/06/15 12:27:38;;;;;;;;;;;23.90;85.60;;;;;;5114572;28;20313;-74
2021/06/15 12:30:07;;;;;;;;;;;23.90;85.10;;;;;;5114836;28;19914;-74
2021/06/15 12:32:45;;;;;;;;;;;23.80;85.00;;;;;;5114358;28;19911;-76
2021/06/15 12:35:19;;;;;;;;;;;23.90;85.40;;;;;;5118654;27;19912;-75
2021/06/15 12:37:45;;;;;;;;;;;24.20;86.20;;;;;;5120759;27;19973;-76
2021/06/15 12:40:11;;;;;;;;;;;23.90;84.60;;;;;;5114206;28;19959;-74
2021/06/15 12:42:37;;;;;;;;;;;24.00;84.90;;;;;;5115175;28;19911;-73
2021/06/15 12:45:03;;;;;;;;;;;24.20;84.60;;;;;;5115367;27;19904;-74
2021/06/15 12:47:29;;;;;;;;;;;24.20;82.80;;;;;;5124996;27;19908;-74
2021/06/15 12:49:56;;;;;;;;;;;24.20;82.70;;;;;;5118040;27;20260;-74
2021/06/15 12:52:30;;;;;;;;;;;24.30;83.40;;;;;;5115651;27;19914;-75
2021/06/15 12:55:07;;;;;;;;;;;24.40;81.40;;;;;;5124498;27;19907;-74
2021/06/15 12:57:32;;;;;;;;;;;24.50;80.80;;;;;;5115112;28;19957;-75
2021/06/15 13:00:04;;;;;;;;;;;24.50;79.80;;;;;;5113748;28;19915;-74
2021/06/15 13:02:29;;;;;;;;;;;24.30;80.30;;;;;;5114640;28;19911;-73
2021/06/15 13:04:56;;;;;;;;;;;24.40;78.40;;;;;;5114751;28;19903;-75
2021/06/15 13:07:23;;;;;;;;;;;24.40;80.30;;;;;;5113762;28;20274;-74
2021/06/15 13:09:48;;;;;;;;;;;24.60;79.20;;;;;;5114636;28;19934;-75
2021/06/15 13:12:21;;;;;;;;;;;24.80;77.10;;;;;;5114673;28;19904;-74
2021/06/15 13:14:54;;;;;;;;;;;24.90;76.70;;;;;;5113798;28;19971;-74
2021/06/15 13:17:21;;;;;;;;;;;24.90;78.90;;;;;;5114170;28;19912;-74
2021/06/15 13:19:49;;;;;;;;;;;24.80;77.50;;;;;;5113813;28;20102;-74
2021/06/15 13:22:41;;;;;;;;;;;24.60;77.40;;;;;;5113230;28;19995;-75
2021/06/15 13:25:07;;;;;;;;;;;24.80;77.30;;;;;;5114536;28;19904;-75
2021/06/15 13:27:45;;;;;;;;;;;25.20;76.80;;;;;;5113653;28;19904;-75
2021/06/15 13:30:16;;;;;;;;;;;25.30;75.20;;;;;;5114126;28;19915;-74
2021/06/15 13:32:42;;;;;;;;;;;25.30;75.80;;;;;;5114551;28;19968;-76
2021/06/15 13:35:08;;;;;;;;;;;25.50;75.00;;;;;;5113298;28;19903;-75
2021/06/15 13:37:35;;;;;;;;;;;25.80;74.00;;;;;;5114142;28;19910;-75
2021/06/15 13:40:01;;;;;;;;;;;26.00;73.60;;;;;;5114102;28;19908;-75
2021/06/15 13:42:28;;;;;;;;;;;25.90;72.80;;;;;;5113349;28;19904;-75
2021/06/15 13:45:06;;;;;;;;;;;26.10;72.70;;;;;;5113890;28;20409;-74
2021/06/15 13:47:32;;;;;;;;;;;26.30;72.50;;;;;;5114054;28;19910;-74
2021/06/15 13:49:58;;;;;;;;;;;26.60;70.50;;;;;;5113068;28;19911;-74
2021/06/15 13:52:23;;;;;;;;;;;26.70;69.90;;;;;;5113606;28;19903;-74
2021/06/15 13:54:49;;;;;;;;;;;26.60;70.60;;;;;;5113813;28;19991;-75
2021/06/15 13:57:14;;;;;;;;;;;26.40;69.10;;;;;;5113124;28;19957;-75
2021/06/15 13:59:40;;;;;;;;;;;26.40;70.90;;;;;;5113518;28;20024;-75
2021/06/15 14:02:05;;;;;;;;;;;26.40;71.50;;;;;;5113823;28;19957;-75
2021/06/15 14:04:31;;;;;;;;;;;26.50;69.70;;;;;;5112864;28;19957;-74
2021/06/15 14:06:59;;;;;;;;;;;26.60;70.40;;;;;;5113468;28;19957;-75
2021/06/15 14:09:24;;;;;;;;;;;26.80;68.20;;;;;;5112975;28;19903;-74
2021/06/15 14:11:50;;;;;;;;;;;25.90;68.50;;;;;;5113438;28;19919;-74
2021/06/15 14:14:15;;;;;;;;;;;25.50;72.00;;;;;;5113378;28;19904;-76
2021/06/15 14:16:41;;;;;;;;;;;25.60;71.70;;;;;;5112682;28;20038;-74
2021/06/15 14:19:06;;;;;;;;;;;25.80;70.70;;;;;;5113525;28;20267;-74
2021/06/15 14:21:38;;;;;;;;;;;26.20;70.10;;;;;;5113396;28;19904;-75
2021/06/15 14:24:07;;;;;;;;;;;26.50;68.60;;;;;;5112769;28;20355;-74